Time;durP1;ratioP1;P1;durP2;ratioP2;P2;SDS_P1;SDS_P2;PMS_P1;PMS_P2;Temp;Humidity;BMP_temperature;BMP_pressure;BME280_temperature;BME280_humidity;BME280_pressure;Samples;Min_cycle;Max_cycle;Signal;HPM_P1;HPM_P2
2021/04/03 00:00:21;;;;;;;2.20;0.20;;;7.40;99.90;;;;;;4994951;28;20207;-81
2021/04/03 00:02:47;;;;;;;0.10;0.10;;;7.60;99.90;;;;;;4994660;28;20191;-80
2021/04/03 00:05:14;;;;;;;0.00;0.00;;;7.70;99.90;;;;;;4994923;28;20194;-80
2021/04/03 00:07:40;;;;;;;0.10;0.10;;;7.60;99.90;;;;;;4994554;28;20550;-80
2021/04/03 00:10:12;;;;;;;0.30;0.30;;;7.50;99.90;;;;;;5012316;28;20287;-80
2021/04/03 00:12:38;;;;;;;0.10;0.10;;;7.60;99.90;;;;;;4994611;28;20187;-80
2021/04/03 00:15:05;;;;;;;0.03;0.03;;;7.80;99.90;;;;;;5012330;28;20184;-80
2021/04/03 00:17:30;;;;;;;0.00;0.00;;;7.70;99.90;;;;;;5011723;28;20198;-81
2021/04/03 00:19:56;;;;;;;0.23;0.23;;;7.80;99.90;;;;;;4994742;28;20186;-80
2021/04/03 00:22:23;;;;;;;0.10;0.10;;;7.90;99.90;;;;;;4994584;28;20217;-80
2021/04/03 00:24:49;;;;;;;0.20;0.10;;;8.00;99.90;;;;;;4994479;28;20277;-80
2021/04/03 00:27:14;;;;;;;0.40;0.30;;;8.00;99.90;;;;;;4994355;28;20518;-80
2021/04/03 00:29:40;;;;;;;0.00;0.00;;;8.00;99.90;;;;;;4994546;28;20211;-80
2021/04/03 00:32:06;;;;;;;0.10;0.10;;;7.70;99.90;;;;;;5011922;28;20204;-78
2021/04/03 00:34:31;;;;;;;0.10;0.10;;;7.90;99.90;;;;;;5011896;28;20182;-79
2021/04/03 00:36:57;;;;;;;0.10;0.10;;;7.80;99.90;;;;;;4994207;28;20184;-81
2021/04/03 00:39:22;;;;;;;0.13;0.13;;;7.70;99.90;;;;;;5010262;28;20578;-80
2021/04/03 00:41:48;;;;;;;0.10;0.10;;;7.70;99.90;;;;;;5012384;28;20258;-80
2021/04/03 00:44:13;;;;;;;0.50;0.40;;;7.80;99.90;;;;;;4994282;28;20266;-80
2021/04/03 00:46:39;;;;;;;0.40;0.40;;;8.00;99.90;;;;;;4994049;28;20205;-80
2021/04/03 00:49:06;;;;;;;0.00;0.00;;;8.00;99.90;;;;;;4993616;28;20215;-81
2021/04/03 00:51:32;;;;;;;0.00;0.00;;;7.90;99.90;;;;;;5011112;28;20632;-79
2021/04/03 00:53:58;;;;;;;0.10;0.10;;;7.90;99.90;;;;;;4993657;28;20214;-80
2021/04/03 00:56:24;;;;;;;0.13;0.13;;;7.80;99.90;;;;;;4993495;28;20198;-80
2021/04/03 00:58:49;;;;;;;0.10;0.10;;;7.70;99.90;;;;;;4993718;28;20193;-80
2021/04/03 01:01:16;;;;;;;0.70;0.30;;;7.80;99.90;;;;;;4993710;28;20211;-80
2021/04/03 01:03:42;;;;;;;0.30;0.30;;;7.90;99.90;;;;;;5011449;28;20198;-80
2021/04/03 01:06:08;;;;;;;0.10;0.10;;;7.90;99.90;;;;;;4993895;28;20201;-80
2021/04/03 01:08:34;;;;;;;0.03;0.03;;;8.00;99.90;;;;;;5011202;28;20210;-80
2021/04/03 01:10:59;;;;;;;0.37;0.20;;;8.00;99.90;;;;;;4993653;28;20675;-80
2021/04/03 01:13:29;;;;;;;0.20;0.20;;;8.10;99.90;;;;;;4993815;28;20196;-79
2021/04/03 01:15:54;;;;;;;0.60;0.37;;;8.00;99.90;;;;;;4993691;28;20210;-80
2021/04/03 01:18:34;;;;;;;0.10;0.10;;;8.00;99.90;;;;;;4993445;28;20180;-79
2021/04/03 01:21:20;;;;;;;0.10;0.10;;;7.80;99.90;;;;;;5011240;28;20905;-80
2021/04/03 01:24:08;;;;;;;0.30;0.30;;;7.70;99.90;;;;;;5011179;28;20233;-80
2021/04/03 01:27:08;;;;;;;2.63;0.23;;;7.60;99.90;;;;;;4993769;28;20659;-79
2021/04/03 01:30:02;;;;;;;0.10;0.10;;;7.50;99.90;;;;;;5011018;28;20212;-79
2021/04/03 01:32:34;;;;;;;0.00;0.00;;;7.30;99.90;;;;;;4993590;28;20195;-78
2021/04/03 01:35:01;;;;;;;0.00;0.00;;;7.50;99.90;;;;;;4993519;28;20280;-80
2021/04/03 01:37:30;;;;;;;1.50;0.40;;;7.70;99.90;;;;;;4993443;28;20187;-80
2021/04/03 01:39:57;;;;;;;0.20;0.20;;;7.50;99.90;;;;;;4993675;28;20213;-80
2021/04/03 01:42:28;;;;;;;0.30;0.30;;;7.60;99.90;;;;;;4994730;28;20190;-80
2021/04/03 01:45:00;;;;;;;0.10;0.10;;;7.50;99.90;;;;;;4993670;28;20268;-80
2021/04/03 01:47:30;;;;;;;0.30;0.20;;;7.60;99.90;;;;;;5011120;28;20187;-80
2021/04/03 01:49:57;;;;;;;0.30;0.20;;;7.70;99.90;;;;;;4993585;28;20256;-80
2021/04/03 01:52:26;;;;;;;0.10;0.10;;;7.60;99.90;;;;;;4993447;28;20190;-80
2021/04/03 01:54:58;;;;;;;0.67;0.43;;;7.60;99.90;;;;;;4993329;28;20190;-80
2021/04/03 01:57:27;;;;;;;0.00;0.00;;;7.50;99.90;;;;;;5010503;28;20382;-80
2021/04/03 01:59:54;;;;;;;0.13;0.13;;;7.50;99.90;;;;;;4988592;28;20556;-79
2021/04/03 02:02:20;;;;;;;0.10;0.10;;;7.60;99.90;;;;;;5006212;28;20180;-80
2021/04/03 02:04:47;;;;;;;0.40;0.17;;;7.60;99.90;;;;;;5012452;28;20373;-80
2021/04/03 02:07:17;;;;;;;1.70;0.60;;;7.50;99.90;;;;;;4996831;28;20224;-80
2021/04/03 02:09:46;;;;;;;0.40;0.40;;;7.10;99.90;;;;;;4996861;28;20605;-79
2021/04/03 02:12:12;;;;;;;2.53;1.80;;;7.40;99.90;;;;;;4997039;28;20236;-80
2021/04/03 02:14:39;;;;;;;0.10;0.10;;;7.50;99.90;;;;;;5014383;28;20548;-79
2021/04/03 02:17:06;;;;;;;0.17;0.17;;;7.50;99.90;;;;;;5014315;28;20223;-80
2021/04/03 02:19:33;;;;;;;0.13;0.13;;;7.50;99.90;;;;;;4996528;28;20211;-80
2021/04/03 02:21:59;;;;;;;0.10;0.10;;;7.40;99.90;;;;;;5014201;28;20711;-80
2021/04/03 02:24:25;;;;;;;0.27;0.27;;;7.40;99.90;;;;;;5014442;28;20253;-80
2021/04/03 02:26:51;;;;;;;0.20;0.20;;;7.20;99.90;;;;;;5014407;28;20191;-80
2021/04/03 02:29:17;;;;;;;0.30;0.30;;;7.10;99.90;;;;;;4996455;28;20214;-79
2021/04/03 02:31:42;;;;;;;0.10;0.10;;;7.20;99.90;;;;;;5014343;28;20200;-79
2021/04/03 02:34:08;;;;;;;2.97;0.30;;;7.20;99.90;;;;;;4996953;28;20179;-80
2021/04/03 02:36:33;;;;;;;0.17;0.17;;;7.20;99.90;;;;;;5014132;28;20268;-80
2021/04/03 02:38:59;;;;;;;0.10;0.10;;;7.30;99.90;;;;;;4987199;28;20214;-78
2021/04/03 02:41:41;;;;;;;0.20;0.20;;;7.30;99.90;;;;;;4997683;28;20225;-79
2021/04/03 02:44:42;;;;;;;0.67;0.67;;;7.20;99.90;;;;;;4996717;28;20210;-80
2021/04/03 02:47:18;;;;;;;0.30;0.30;;;7.10;99.90;;;;;;5009856;28;20203;-80
2021/04/03 02:49:53;;;;;;;0.20;0.20;;;7.10;99.90;;;;;;4996127;28;20225;-79
2021/04/03 02:52:20;;;;;;;0.77;0.77;;;7.00;99.90;;;;;;4996426;28;20191;-81
2021/04/03 02:54:49;;;;;;;0.10;0.10;;;7.00;99.90;;;;;;5013671;28;20198;-81
2021/04/03 02:57:15;;;;;;;0.10;0.10;;;6.90;99.90;;;;;;4995514;28;20187;-80
2021/04/03 02:59:45;;;;;;;0.40;0.40;;;6.80;99.90;;;;;;5013513;28;20190;-80
2021/04/03 03:02:15;;;;;;;0.10;0.10;;;6.70;99.90;;;;;;4996172;28;20187;-79
2021/04/03 03:04:43;;;;;;;0.20;0.20;;;6.70;99.90;;;;;;5013733;28;20187;-80
2021/04/03 03:07:09;;;;;;;0.10;0.10;;;6.50;99.90;;;;;;4995945;28;20192;-78
2021/04/03 03:09:36;;;;;;;0.10;0.10;;;6.40;99.90;;;;;;4996145;28;20224;-79
2021/04/03 03:12:03;;;;;;;0.30;0.30;;;6.40;99.90;;;;;;5013220;28;20199;-80
2021/04/03 03:14:30;;;;;;;0.10;0.10;;;6.30;99.90;;;;;;4995406;28;20226;-80
2021/04/03 03:16:57;;;;;;;0.30;0.30;;;6.30;99.90;;;;;;4995960;28;20192;-80
2021/04/03 03:19:24;;;;;;;0.30;0.30;;;6.30;99.90;;;;;;4995883;28;20218;-80
2021/04/03 03:21:50;;;;;;;0.20;0.20;;;6.30;99.90;;;;;;5013631;28;20635;-78
2021/04/03 03:24:16;;;;;;;0.70;0.30;;;6.20;99.90;;;;;;5028875;28;20237;-81
2021/04/03 03:26:43;;;;;;;0.20;0.20;;;6.20;99.90;;;;;;5013193;28;20274;-80
2021/04/03 03:29:11;;;;;;;1.90;1.13;;;6.20;99.90;;;;;;5013139;28;20246;-80
2021/04/03 03:31:37;;;;;;;4.13;2.40;;;6.20;99.90;;;;;;5013392;28;20195;-80
2021/04/03 03:34:03;;;;;;;0.30;0.30;;;6.10;99.90;;;;;;5013741;28;20670;-80
2021/04/03 03:36:29;;;;;;;0.10;0.10;;;6.20;99.90;;;;;;5013233;28;20251;-80
2021/04/03 03:38:56;;;;;;;0.10;0.10;;;6.30;99.90;;;;;;5013158;28;20199;-80
2021/04/03 03:41:24;;;;;;;0.10;0.10;;;6.40;99.90;;;;;;5014169;28;20204;-80
2021/04/03 03:43:50;;;;;;;0.27;0.10;;;6.40;99.90;;;;;;4995610;28;20183;-80
2021/04/03 03:46:16;;;;;;;0.17;0.13;;;6.50;99.90;;;;;;5012970;28;20274;-78
2021/04/03 03:48:41;;;;;;;0.60;0.40;;;6.40;99.90;;;;;;5012800;28;20297;-81
2021/04/03 03:51:07;;;;;;;0.57;0.57;;;6.20;99.90;;;;;;4995272;28;20570;-81
2021/04/03 03:53:32;;;;;;;0.07;0.07;;;6.00;99.90;;;;;;5012839;28;20182;-80
2021/04/03 03:55:59;;;;;;;0.20;0.20;;;6.10;99.90;;;;;;4995029;28;20214;-78
2021/04/03 03:58:24;;;;;;;0.30;0.30;;;6.00;99.90;;;;;;4994788;28;20214;-79
2021/04/03 04:00:50;;;;;;;0.00;0.00;;;6.00;99.90;;;;;;5012779;28;20202;-80
2021/04/03 04:03:16;;;;;;;0.50;0.50;;;6.00;99.90;;;;;;4995117;28;20722;-79
2021/04/03 04:05:42;;;;;;;0.10;0.10;;;6.00;99.90;;;;;;5013159;28;20222;-79
2021/04/03 04:08:08;;;;;;;0.00;0.00;;;5.90;99.90;;;;;;4994516;28;20213;-81
2021/04/03 04:10:34;;;;;;;0.10;0.10;;;5.80;99.90;;;;;;5012328;28;20221;-81
2021/04/03 04:13:01;;;;;;;0.13;0.13;;;5.70;99.90;;;;;;5012206;28;20179;-81
2021/04/03 04:15:27;;;;;;;0.27;0.27;;;5.70;99.90;;;;;;4995055;28;20187;-80
2021/04/03 04:17:53;;;;;;;0.23;0.23;;;5.60;99.90;;;;;;5011998;28;20175;-80
2021/04/03 04:20:18;;;;;;;0.23;0.23;;;5.60;99.90;;;;;;4994871;28;20202;-80
2021/04/03 04:22:44;;;;;;;4.57;1.57;;;5.70;99.90;;;;;;4994328;28;20207;-81
2021/04/03 04:25:11;;;;;;;0.20;0.20;;;5.70;99.90;;;;;;4994870;28;20284;-80
2021/04/03 04:27:36;;;;;;;0.00;0.00;;;5.70;99.90;;;;;;4993478;28;20198;-80
2021/04/03 04:30:10;;;;;;;0.10;0.10;;;5.90;99.90;;;;;;5012052;28;20218;-79
2021/04/03 04:32:40;;;;;;;1.23;0.90;;;6.10;99.90;;;;;;4994536;28;20187;-80
2021/04/03 04:35:07;;;;;;;0.40;0.40;;;6.10;99.90;;;;;;4994230;28;20190;-81
2021/04/03 04:37:34;;;;;;;0.40;0.40;;;6.00;99.90;;;;;;5011474;28;20289;-81
2021/04/03 04:39:59;;;;;;;0.80;0.70;;;6.00;99.90;;;;;;5011904;28;20640;-81
2021/04/03 04:42:25;;;;;;;0.10;0.10;;;6.00;99.90;;;;;;4995486;28;20198;-81
2021/04/03 04:44:51;;;;;;;0.10;0.10;;;6.00;99.90;;;;;;5012024;28;20194;-80
2021/04/03 04:47:17;;;;;;;0.30;0.30;;;6.00;99.90;;;;;;4994655;28;20190;-79
2021/04/03 04:49:42;;;;;;;0.50;0.20;;;6.10;99.90;;;;;;4994237;28;20207;-80
2021/04/03 04:52:08;;;;;;;0.20;0.20;;;5.80;99.90;;;;;;4994499;28;20230;-80
2021/04/03 04:54:34;;;;;;;0.10;0.10;;;5.90;99.90;;;;;;5011922;28;20190;-80
2021/04/03 04:56:59;;;;;;;1.20;0.43;;;5.80;99.90;;;;;;4994165;28;20187;-81
2021/04/03 04:59:25;;;;;;;1.00;0.50;;;5.90;99.90;;;;;;4994172;28;20237;-78
2021/04/03 05:01:50;;;;;;;0.87;0.83;;;5.90;99.90;;;;;;4994130;28;20243;-79
2021/04/03 05:04:19;;;;;;;0.40;0.40;;;5.80;99.90;;;;;;4994476;28;20301;-78
2021/04/03 05:06:44;;;;;;;0.20;0.20;;;5.90;99.90;;;;;;5010378;28;20261;-80
2021/04/03 05:09:10;;;;;;;0.37;0.33;;;5.90;99.90;;;;;;5023596;28;20687;-81
2021/04/03 05:11:36;;;;;;;0.13;0.13;;;5.90;99.90;;;;;;5011606;28;20205;-80
2021/04/03 05:14:02;;;;;;;0.23;0.03;;;5.90;99.90;;;;;;4993843;28;20273;-80
2021/04/03 05:16:28;;;;;;;0.53;0.53;;;5.90;99.90;;;;;;5011557;28;20182;-80
2021/04/03 05:18:53;;;;;;;0.40;0.40;;;5.90;99.90;;;;;;5011358;28;20230;-79
2021/04/03 05:21:19;;;;;;;0.10;0.10;;;5.90;99.90;;;;;;4994257;28;20205;-80
2021/04/03 05:23:44;;;;;;;0.13;0.13;;;5.90;99.90;;;;;;5011293;28;20242;-80
2021/04/03 05:26:10;;;;;;;0.57;0.40;;;5.90;99.90;;;;;;4993977;28;20197;-80
2021/04/03 05:28:36;;;;;;;0.20;0.20;;;5.90;99.90;;;;;;4993544;28;20278;-79
2021/04/03 05:31:01;;;;;;;0.13;0.13;;;5.90;99.90;;;;;;5011649;28;20236;-81
2021/04/03 05:33:27;;;;;;;0.10;0.10;;;5.80;99.90;;;;;;4994198;28;20207;-79
2021/04/03 05:35:52;;;;;;;0.10;0.10;;;5.80;99.90;;;;;;5011767;28;20674;-80
2021/04/03 05:38:18;;;;;;;0.17;0.17;;;5.80;99.90;;;;;;5013078;28;20194;-79
2021/04/03 05:40:43;;;;;;;0.20;0.20;;;5.90;99.90;;;;;;4997876;28;20694;-80
2021/04/03 05:43:10;;;;;;;0.10;0.10;;;5.80;99.90;;;;;;4999576;28;20542;-79
2021/04/03 05:45:40;;;;;;;0.13;0.13;;;5.80;99.90;;;;;;5015898;28;20191;-80
2021/04/03 05:48:06;;;;;;;0.23;0.23;;;5.80;99.90;;;;;;4998390;28;20189;-80
2021/04/03 05:50:32;;;;;;;0.10;0.10;;;5.70;99.90;;;;;;5015524;28;20205;-81
2021/04/03 05:52:59;;;;;;;0.20;0.20;;;5.70;99.90;;;;;;5015774;28;20187;-80
2021/04/03 05:55:26;;;;;;;0.10;0.10;;;5.80;99.90;;;;;;5015622;28;20269;-80
2021/04/03 05:57:51;;;;;;;0.33;0.13;;;5.80;99.90;;;;;;4997396;28;20659;-80
2021/04/03 06:00:17;;;;;;;0.27;0.27;;;5.80;99.90;;;;;;5015408;28;20209;-80
2021/04/03 06:02:43;;;;;;;0.10;0.10;;;5.80;99.90;;;;;;4997924;28;20193;-80
2021/04/03 06:05:09;;;;;;;0.00;0.00;;;5.90;99.90;;;;;;4998092;28;20186;-80
2021/04/03 06:07:35;;;;;;;0.40;0.40;;;6.00;99.90;;;;;;4997750;28;20197;-80
2021/04/03 06:10:03;;;;;;;0.10;0.10;;;6.10;99.90;;;;;;5015206;28;20206;-79
2021/04/03 06:12:49;;;;;;;0.67;0.67;;;6.10;99.90;;;;;;4997812;28;20619;-81
2021/04/03 06:15:33;;;;;;;0.93;0.33;;;6.00;99.90;;;;;;4997817;28;20199;-81
2021/04/03 06:18:00;;;;;;;0.33;0.33;;;6.00;99.90;;;;;;5002495;28;20171;-81
2021/04/03 06:20:40;;;;;;;0.10;0.10;;;6.00;99.90;;;;;;4997277;28;20210;-80
2021/04/03 06:23:07;;;;;;;0.23;0.23;;;6.10;99.90;;;;;;5015219;28;20187;-80
2021/04/03 06:26:03;;;;;;;0.00;0.00;;;6.30;99.90;;;;;;4997645;28;20776;-80
2021/04/03 06:28:33;;;;;;;0.00;0.00;;;6.20;99.90;;;;;;4992771;28;20191;-80
2021/04/03 06:31:17;;;;;;;0.13;0.13;;;6.40;99.90;;;;;;4998105;28;20221;-80
2021/04/03 06:33:46;;;;;;;0.10;0.10;;;6.60;99.90;;;;;;5015089;28;20217;-81
2021/04/03 06:36:15;;;;;;;0.20;0.20;;;6.50;99.90;;;;;;4997473;28;20179;-78
2021/04/03 06:38:42;;;;;;;0.30;0.30;;;6.70;99.90;;;;;;5014254;28;20195;-81
2021/04/03 06:41:34;;;;;;;0.20;0.20;;;6.80;99.90;;;;;;5030039;28;20213;-78
2021/04/03 06:44:00;;;;;;;0.10;0.10;;;6.60;99.90;;;;;;4985026;28;20235;-80
2021/04/03 06:46:26;;;;;;;1.67;0.40;;;6.80;99.90;;;;;;4997823;28;20198;-81
2021/04/03 06:48:52;;;;;;;0.20;0.20;;;6.70;99.90;;;;;;4997713;28;20297;-79
2021/04/03 06:51:23;;;;;;;0.57;0.57;;;6.70;99.90;;;;;;5014212;28;20225;-79
2021/04/03 06:53:53;;;;;;;0.20;0.20;;;6.80;99.90;;;;;;4997661;28;20179;-81
2021/04/03 06:56:24;;;;;;;0.10;0.10;;;6.80;99.90;;;;;;5013365;28;20232;-81
2021/04/03 06:59:04;;;;;;;7.00;0.37;;;6.90;99.90;;;;;;4997312;28;20229;-81
2021/04/03 07:01:34;;;;;;;0.20;0.20;;;6.80;99.90;;;;;;5014837;28;20220;-80
2021/04/03 07:04:05;;;;;;;0.00;0.00;;;7.00;99.90;;;;;;4997438;28;20187;-80
2021/04/03 07:06:32;;;;;;;0.10;0.10;;;7.10;99.90;;;;;;4997784;28;20186;-80
2021/04/03 07:09:00;;;;;;;0.20;0.20;;;7.00;99.90;;;;;;4997196;28;20206;-80
2021/04/03 07:11:26;;;;;;;0.00;0.00;;;7.20;99.90;;;;;;4997290;28;20215;-80
2021/04/03 07:13:53;;;;;;;0.50;0.50;;;7.40;99.90;;;;;;5031465;28;20184;-80
2021/04/03 07:16:21;;;;;;;0.20;0.20;;;7.40;99.90;;;;;;5015923;28;20226;-80
2021/04/03 07:18:48;;;;;;;11.53;0.57;;;7.40;99.90;;;;;;4998148;28;20627;-79
2021/04/03 07:21:13;;;;;;;0.63;0.20;;;7.10;99.90;;;;;;4999137;28;20203;-79
2021/04/03 07:23:39;;;;;;;0.00;0.00;;;7.20;99.90;;;;;;4999019;28;20285;-80
2021/04/03 07:26:07;;;;;;;0.07;0.07;;;7.40;99.90;;;;;;4998200;28;20260;-81
2021/04/03 07:28:37;;;;;;;0.13;0.10;;;7.80;99.90;;;;;;5015283;28;20187;-79
2021/04/03 07:31:04;;;;;;;0.10;0.10;;;7.40;99.90;;;;;;4997848;28;20688;-81
2021/04/03 07:33:30;;;;;;;0.00;0.00;;;7.70;99.90;;;;;;4996768;28;20238;-80
2021/04/03 07:35:59;;;;;;;0.50;0.50;;;7.80;99.90;;;;;;5015545;28;20624;-81
2021/04/03 07:38:29;;;;;;;0.40;0.40;;;7.70;99.90;;;;;;4997215;28;20209;-81
2021/04/03 07:41:00;;;;;;;0.10;0.10;;;8.00;99.90;;;;;;4997680;28;20295;-80
2021/04/03 07:43:35;;;;;;;0.13;0.13;;;7.90;99.90;;;;;;4998457;28;20196;-81
2021/04/03 07:46:02;;;;;;;0.10;0.10;;;7.70;99.90;;;;;;4998743;28;20693;-80
2021/04/03 07:48:39;;;;;;;0.00;0.00;;;8.00;99.90;;;;;;4997424;28;20183;-81
2021/04/03 07:51:10;;;;;;;0.10;0.10;;;7.80;99.90;;;;;;4997467;28;20785;-80
2021/04/03 07:53:46;;;;;;;0.10;0.10;;;7.70;99.90;;;;;;5015002;28;20271;-81
2021/04/03 07:56:14;;;;;;;0.20;0.20;;;7.80;99.90;;;;;;4996877;28;20766;-81
2021/04/03 07:58:58;;;;;;;4.33;1.70;;;7.80;99.90;;;;;;5014310;28;20209;-81
2021/04/03 08:01:29;;;;;;;0.10;0.10;;;8.00;99.90;;;;;;5027913;28;20202;-80
2021/04/03 08:04:03;;;;;;;0.13;0.13;;;8.50;99.90;;;;;;5030593;28;20558;-78
2021/04/03 08:06:31;;;;;;;0.93;0.83;;;8.50;99.90;;;;;;5030104;28;20218;-81
2021/04/03 08:08:57;;;;;;;0.53;0.30;;;8.50;99.90;;;;;;5028205;28;20291;-80
2021/04/03 08:11:23;;;;;;;0.00;0.00;;;8.50;99.90;;;;;;4996134;28;20289;-80
2021/04/03 08:13:52;;;;;;;0.00;0.00;;;8.50;99.90;;;;;;4995031;28;20822;-79
2021/04/03 08:16:19;;;;;;;0.20;0.17;;;8.50;99.90;;;;;;4995708;28;20180;-80
2021/04/03 08:18:50;;;;;;;0.17;0.17;;;8.50;99.90;;;;;;5027534;28;20191;-81
2021/04/03 08:21:17;;;;;;;0.10;0.10;;;8.70;99.90;;;;;;4994938;28;20210;-81
2021/04/03 08:23:47;;;;;;;0.07;0.07;;;8.90;99.90;;;;;;4994649;28;20179;-81
2021/04/03 08:26:14;;;;;;;1.30;0.47;;;9.10;99.90;;;;;;4995195;28;20556;-81
2021/04/03 08:28:40;;;;;;;0.10;0.10;;;9.60;99.90;;;;;;4994237;28;20236;-81
2021/04/03 08:31:21;;;;;;;0.53;0.33;;;9.30;99.90;;;;;;4994851;28;20243;-80
2021/04/03 08:33:48;;;;;;;0.10;0.10;;;9.20;99.90;;;;;;5011967;28;20184;-81
2021/04/03 08:36:25;;;;;;;0.00;0.00;;;9.30;99.90;;;;;;5012475;28;20183;-79
2021/04/03 08:38:52;;;;;;;0.13;0.13;;;9.20;99.90;;;;;;4993752;28;20212;-80
2021/04/03 08:41:26;;;;;;;0.10;0.10;;;9.30;99.90;;;;;;5014148;28;20208;-80
2021/04/03 08:43:56;;;;;;;0.10;0.10;;;9.40;99.90;;;;;;4983350;28;20196;-80
2021/04/03 08:46:22;;;;;;;0.00;0.00;;;9.00;99.90;;;;;;4995467;28;20200;-80
2021/04/03 08:48:52;;;;;;;0.00;0.00;;;9.10;99.90;;;;;;4994647;28;20207;-81
2021/04/03 08:51:18;;;;;;;0.10;0.10;;;9.30;99.90;;;;;;4994518;28;20209;-81
2021/04/03 08:53:52;;;;;;;0.90;0.90;;;9.10;99.90;;;;;;4994525;28;20314;-81
2021/04/03 08:56:26;;;;;;;0.30;0.30;;;9.00;99.90;;;;;;5012023;28;20208;-81
2021/04/03 08:58:53;;;;;;;0.10;0.10;;;8.90;99.90;;;;;;5011747;28;20185;-81
2021/04/03 09:01:31;;;;;;;0.10;0.10;;;9.40;99.90;;;;;;5012583;28;20258;-81
2021/04/03 09:04:07;;;;;;;0.10;0.10;;;9.20;99.90;;;;;;4995649;28;20195;-80
2021/04/03 09:06:59;;;;;;;1.10;0.77;;;9.30;99.90;;;;;;5013303;28;20171;-81
2021/04/03 09:09:29;;;;;;;0.10;0.10;;;10.00;99.90;;;;;;4991706;28;20213;-80
2021/04/03 09:12:05;;;;;;;0.10;0.10;;;10.10;99.90;;;;;;4994974;28;20210;-81
2021/04/03 09:14:36;;;;;;;0.10;0.10;;;10.00;99.90;;;;;;5011699;28;20826;-79
2021/04/03 09:17:25;;;;;;;0.07;0.07;;;9.80;99.90;;;;;;5021042;28;20703;-81
2021/04/03 09:20:11;;;;;;;1.03;0.73;;;9.90;99.90;;;;;;5012092;28;20190;-81
2021/04/03 09:22:38;;;;;;;0.07;0.07;;;10.10;99.90;;;;;;4994060;28;20186;-81
2021/04/03 09:25:12;;;;;;;0.27;0.20;;;10.10;99.90;;;;;;5026850;28;20189;-81
2021/04/03 09:27:38;;;;;;;0.27;0.17;;;10.30;99.90;;;;;;4993828;28;20236;-80
2021/04/03 09:30:13;;;;;;;0.00;0.00;;;10.50;99.90;;;;;;5011081;28;20217;-79
2021/04/03 09:32:42;;;;;;;0.37;0.37;;;10.40;99.90;;;;;;5012210;28;20204;-81
2021/04/03 09:35:10;;;;;;;0.10;0.10;;;10.40;99.90;;;;;;4993458;28;20237;-80
2021/04/03 09:37:36;;;;;;;0.10;0.10;;;10.80;99.90;;;;;;5005157;28;20225;-80
2021/04/03 09:40:07;;;;;;;0.27;0.27;;;10.80;99.90;;;;;;4990158;28;20256;-79
2021/04/03 09:42:34;;;;;;;0.03;0.03;;;10.50;99.90;;;;;;4994864;28;20679;-81
2021/04/03 09:45:05;;;;;;;0.60;0.60;;;10.30;99.90;;;;;;5010989;28;20190;-79
2021/04/03 09:47:31;;;;;;;0.10;0.10;;;10.80;99.90;;;;;;4993337;28;20678;-81
2021/04/03 09:49:57;;;;;;;1.50;0.10;;;10.80;99.90;;;;;;5010969;28;20219;-80
2021/04/03 09:52:25;;;;;;;0.03;0.03;;;10.70;99.90;;;;;;4993955;28;20563;-81
2021/04/03 09:54:50;;;;;;;0.10;0.10;;;10.70;99.90;;;;;;5010976;28;20258;-81
2021/04/03 09:57:16;;;;;;;0.30;0.30;;;10.80;99.90;;;;;;5011058;28;20292;-80
2021/04/03 09:59:43;;;;;;;0.33;0.20;;;10.80;99.90;;;;;;4993130;28;20190;-81
2021/04/03 10:02:10;;;;;;;0.30;0.30;;;10.80;99.90;;;;;;4993833;28;20676;-81
2021/04/03 10:04:36;;;;;;;0.43;0.43;;;10.70;99.90;;;;;;4994289;28;20206;-80
2021/04/03 10:07:01;;;;;;;0.17;0.17;;;10.40;99.90;;;;;;5012233;28;20193;-80
2021/04/03 10:09:27;;;;;;;0.00;0.00;;;11.10;99.90;;;;;;4993377;28;20597;-81
2021/04/03 10:11:53;;;;;;;1.73;0.40;;;11.10;99.90;;;;;;4993429;28;20203;-81
2021/04/03 10:14:19;;;;;;;0.50;0.20;;;11.70;99.90;;;;;;5010863;28;20193;-81
2021/04/03 10:16:45;;;;;;;0.63;0.30;;;11.20;99.90;;;;;;4993617;28;20190;-81
2021/04/03 10:19:11;;;;;;;3.00;0.20;;;11.40;99.90;;;;;;5011349;28;20189;-81
2021/04/03 10:21:37;;;;;;;0.17;0.17;;;11.70;99.90;;;;;;4993632;28;20711;-81
2021/04/03 10:24:04;;;;;;;0.13;0.13;;;12.40;99.90;;;;;;4993321;28;20678;-81
2021/04/03 10:26:29;;;;;;;0.10;0.10;;;12.60;99.90;;;;;;4996672;28;20198;-81
2021/04/03 10:28:55;;;;;;;0.30;0.30;;;12.80;99.90;;;;;;4997060;28;20215;-81
2021/04/03 10:31:21;;;;;;;0.10;0.10;;;12.80;99.90;;;;;;4996983;28;20203;-80
2021/04/03 10:33:46;;;;;;;9.00;0.33;;;12.60;99.90;;;;;;4997192;28;20219;-79
2021/04/03 10:36:12;;;;;;;0.10;0.10;;;12.70;99.90;;;;;;4997228;28;20215;-82
2021/04/03 10:38:38;;;;;;;0.20;0.20;;;12.70;99.90;;;;;;5014166;28;20278;-81
2021/04/03 10:41:05;;;;;;;0.03;0.03;;;12.30;99.90;;;;;;4997059;28;20214;-81
2021/04/03 10:43:31;;;;;;;3.20;0.20;;;12.00;99.90;;;;;;5015788;28;20183;-81
2021/04/03 10:45:57;;;;;;;0.10;0.10;;;13.00;99.90;;;;;;4997530;28;20197;-80
2021/04/03 10:48:23;;;;;;;3.60;0.20;;;12.90;99.90;;;;;;4997240;28;20711;-81
2021/04/03 10:50:48;;;;;;;0.10;0.10;;;13.50;99.90;;;;;;5015522;28;20219;-81
2021/04/03 10:53:14;;;;;;;0.10;0.10;;;13.30;99.90;;;;;;4997805;28;20201;-81
2021/04/03 10:55:40;;;;;;;0.10;0.10;;;13.40;99.90;;;;;;5014011;28;20187;-81
2021/04/03 10:58:05;;;;;;;0.50;0.37;;;13.90;99.90;;;;;;4997072;28;20266;-81
2021/04/03 11:00:31;;;;;;;0.07;0.07;;;13.60;99.90;;;;;;5014139;28;20251;-80
2021/04/03 11:02:57;;;;;;;0.10;0.10;;;13.50;99.90;;;;;;4996369;28;20191;-81
2021/04/03 11:05:23;;;;;;;0.10;0.10;;;12.50;99.90;;;;;;4996456;28;20187;-80
2021/04/03 11:07:50;;;;;;;0.10;0.10;;;12.80;99.90;;;;;;5014027;28;20191;-80
2021/04/03 11:10:16;;;;;;;0.10;0.10;;;12.80;99.90;;;;;;4996127;28;20231;-82
2021/04/03 11:12:41;;;;;;;0.00;0.00;;;13.10;99.90;;;;;;5014248;28;20262;-81
2021/04/03 11:15:09;;;;;;;0.13;0.13;;;13.10;99.90;;;;;;4997069;28;20179;-81
2021/04/03 11:17:34;;;;;;;0.10;0.10;;;13.30;99.90;;;;;;5028627;28;20568;-81
2021/04/03 11:20:00;;;;;;;0.30;0.30;;;12.70;99.90;;;;;;4996408;28;20187;-81
2021/04/03 11:22:26;;;;;;;0.00;0.00;;;12.60;99.90;;;;;;4996048;28;20195;-81
2021/04/03 11:24:52;;;;;;;0.20;0.20;;;12.90;99.90;;;;;;4996002;28;20198;-81
2021/04/03 11:27:17;;;;;;;0.20;0.10;;;12.90;99.90;;;;;;4995686;28;20575;-81
2021/04/03 11:29:43;;;;;;;0.30;0.23;;;13.00;99.90;;;;;;5013284;28;20215;-81
2021/04/03 11:32:09;;;;;;;0.30;0.27;;;12.80;99.90;;;;;;5014030;28;20667;-81
2021/04/03 11:34:34;;;;;;;0.73;0.73;;;12.40;99.90;;;;;;4995761;28;20191;-81
2021/04/03 11:37:00;;;;;;;0.10;0.10;;;12.10;99.90;;;;;;5012871;28;20183;-81
2021/04/03 11:39:25;;;;;;;0.33;0.33;;;11.80;99.90;;;;;;4995381;28;20897;-82
2021/04/03 11:41:51;;;;;;;0.00;0.00;;;11.60;99.90;;;;;;5014453;28;20214;-80
2021/04/03 11:44:16;;;;;;;0.80;0.63;;;11.60;99.90;;;;;;5013280;28;20187;-81
2021/04/03 11:46:42;;;;;;;0.00;0.00;;;11.60;99.90;;;;;;4995560;28;20253;-81
2021/04/03 11:49:07;;;;;;;0.10;0.10;;;11.60;99.90;;;;;;4995349;28;20223;-81
2021/04/03 11:51:33;;;;;;;0.10;0.10;;;11.80;99.90;;;;;;4995548;28;20215;-79
2021/04/03 11:53:59;;;;;;;0.10;0.10;;;11.80;99.90;;;;;;5012980;28;20269;-81
2021/04/03 11:56:24;;;;;;;0.10;0.10;;;12.10;99.90;;;;;;5012660;28;20191;-81
2021/04/03 11:58:50;;;;;;;0.10;0.10;;;12.40;99.90;;;;;;4995513;28;20622;-81
2021/04/03 12:01:16;;;;;;;0.10;0.10;;;12.80;99.90;;;;;;5012783;28;20260;-81
2021/04/03 12:03:41;;;;;;;0.20;0.20;;;13.20;99.90;;;;;;4995661;28;20195;-81
2021/04/03 12:06:07;;;;;;;0.10;0.10;;;12.90;99.90;;;;;;4995339;28;20214;-81
2021/04/03 12:08:32;;;;;;;4.23;0.90;;;12.50;99.90;;;;;;4995295;28;20210;-81
2021/04/03 12:10:58;;;;;;;0.50;0.40;;;12.90;99.90;;;;;;5012926;28;20219;-81
2021/04/03 12:13:26;;;;;;;0.13;0.13;;;12.80;99.90;;;;;;4995497;28;20191;-79
2021/04/03 12:15:52;;;;;;;0.10;0.10;;;12.50;99.90;;;;;;4996722;28;20183;-82
2021/04/03 12:18:18;;;;;;;0.10;0.10;;;12.60;99.90;;;;;;5012788;28;20185;-80
2021/04/03 12:20:43;;;;;;;0.50;0.10;;;12.70;99.90;;;;;;4995448;28;20276;-81
2021/04/03 12:23:09;;;;;;;0.10;0.10;;;13.20;99.90;;;;;;4995620;28;20241;-81
2021/04/03 12:25:34;;;;;;;0.00;0.00;;;13.80;99.90;;;;;;4995741;28;20192;-81
2021/04/03 12:28:00;;;;;;;0.20;0.20;;;13.70;99.90;;;;;;4994791;28;20222;-81
2021/04/03 12:30:25;;;;;;;0.00;0.00;;;14.50;99.90;;;;;;4995402;28;20598;-81
2021/04/03 12:32:51;;;;;;;0.20;0.20;;;14.20;99.90;;;;;;5012899;28;20182;-80
2021/04/03 12:35:17;;;;;;;0.10;0.10;;;14.60;99.90;;;;;;4995174;28;20199;-81
2021/04/03 12:37:42;;;;;;;0.20;0.20;;;14.20;99.90;;;;;;4994691;28;20250;-81
2021/04/03 12:40:09;;;;;;;0.10;0.10;;;14.80;99.90;;;;;;5012837;28;20204;-80
2021/04/03 12:42:34;;;;;;;0.00;0.00;;;15.00;99.90;;;;;;4996680;28;20212;-81
2021/04/03 12:45:01;;;;;;;0.07;0.07;;;15.00;99.90;;;;;;5012757;28;20219;-81
2021/04/03 12:47:26;;;;;;;0.10;0.10;;;14.70;99.90;;;;;;4993851;28;20193;-81
2021/04/03 12:49:52;;;;;;;2.63;0.93;;;13.80;99.90;;;;;;4995270;28;20214;-81
2021/04/03 12:52:17;;;;;;;0.10;0.10;;;13.80;99.90;;;;;;5013215;28;20183;-81
2021/04/03 12:54:43;;;;;;;0.10;0.10;;;14.10;99.90;;;;;;4996705;28;20189;-81
2021/04/03 12:57:09;;;;;;;0.00;0.00;;;14.30;99.90;;;;;;5014090;28;20183;-81